Terminal Aerodrome Forecast
Issued by NWS

Home | Current Version | Previous Version | Graphics & Text | Print | Product List | Glossary On
Versions: 1 2 3 4 5 6 7 8 9 10 11 12 13 14 15 16 17 18 19 20 21 22 23 24 25 26 27 28 29 30 31 32 33 34 35 36
000
FTUS43 KLOT 051135
TAFDPA
TAF
KDPA 051135Z 0512/0612 20003KT 6SM BR FEW250
      TEMPO 0512/0514 4SM BR
     FM051700 18009KT P6SM FEW060
     FM060100 17004KT P6SM FEW250=

USA.gov is the U.S. government's official web portal to all federal, state and local government web resources and services.